Weather at AIRBAS Airfield [CLOSED]

Public forecast

Using degrees Celsius for public forecast. Weather courtesy of forecast.io.

Closest aviation weather report (METAR) to AIRBAS Airfield

Closest report is Marina di Ginosa Heliport, 15.9 nm (29.5 km) ESE.

2024/05/23 23:55 (retrieved 23 minutes ago)

LIBH 232355Z AUTO 32005KT //// 17/14 Q1017

Closest aviation forecast (TAF) to AIRBAS Airfield

Forecast is more than 6 hours old.

Closest forecast is Foggia "Gino Lisa" Airport, 70.8 nm (131.1 km) NW.

2024/05/23 18:00 Ammendment (retrieved 6 hours ago)

TAF AMD LIBF 232110Z 2318/2418 CNL